Flight Track Log - Related Links

Times and Time Zones

All times are in EDT time to prevent confusion due to time zone crossing. See the EJA142 flight status page for this flight to view local times or setup timezone preferences in your user account.


Time Position Orientation Groundspeed Altitude Reporting Facility
EDT Latitude Longitude Course Direction KTS MPH feet Rate Location/Type
Sun 03:05:09 PM 34.1900 -118.4869 136° Southeast 168 193 1,800  Level Los Angeles Center
Sun 03:06:11 PM 34.1556 -118.4469 136° Southeast 167 192 2,200 1,776 Climbing Los Angeles Center
Sun 03:07:14 PM 34.1550 -118.3806 91° East 231 266 5,500 3,216 Climbing Los Angeles Center
Sun 03:08:16 PM 34.2408 -118.4061 346° North 283 326 8,900 2,613 Climbing Los Angeles Center
Sun 03:09:18 PM 34.3236 -118.4336 345° North 313 360 10,900 2,032 Climbing Los Angeles Center
Sun 03:10:20 PM 34.4158 -118.3675 31° Northeast 386 444 13,100 2,710 Climbing Los Angeles Center
Sun 03:11:22 PM 34.4944 -118.2819 42° Northeast 380 437 16,500 2,952 Climbing Los Angeles Center
Sun 03:12:24 PM 34.5550 -118.1858 53° Northeast 362 417 19,200 2,640 Climbing Los Angeles Center
Sun 03:13:27 PM 34.6239 -118.0756 53° Northeast 371 427 22,000 2,496 Climbing Los Angeles Center
Sun 03:14:29 PM 34.6439 -117.9478 79° East 389 448 24,400 1,984 Climbing Los Angeles Center
Sun 03:15:31 PM 34.6586 -117.8142 82° East 396 456 26,100 1,452 Climbing Los Angeles Center
Sun 03:16:33 PM 34.6764 -117.6436 83° East 428 493 27,400 1,113 Climbing Los Angeles Center
Sun 03:17:35 PM 34.6928 -117.4833 83° East 478 550 28,400 1,344 Climbing Los Angeles Center
Sun 03:18:38 PM 34.7100 -117.3161 83° East 500 575 30,200 1,728 Climbing Los Angeles Center
Sun 03:19:40 PM 34.7261 -117.1464 83° East 506 582 32,000 1,935 Climbing Los Angeles Center
Sun 03:20:42 PM 34.7375 -116.9761 85° East 509 586 34,200 2,177 Climbing Los Angeles Center
Sun 03:21:44 PM 34.7372 -116.7731 90° East 506 582 36,500 2,032 Climbing Los Angeles Center
Sun 03:22:46 PM 34.7394 -116.6036 89° East 505 581 38,400 1,632 Climbing Los Angeles Center
Sun 03:23:49 PM 34.7394 -116.4350 90° East 504 580 39,900 1,488 Climbing Los Angeles Center
Sun 03:24:51 PM 34.7411 -116.2647 89° East 504 580 41,500 1,306 Climbing Los Angeles Center
Sun 03:25:53 PM 34.7428 -116.0994 89° East 498 573 42,600 1,113 Climbing Los Angeles Center
Sun 03:26:55 PM 34.7433 -115.8992 90° East 495 570 43,800 919 Climbing Los Angeles Center
Sun 03:27:57 PM 34.7439 -115.7344 90° East 494 568 44,500 581 Climbing Los Angeles Center
Sun 03:28:59 PM 34.7439 -115.5664 90° East 494 568 45,000 240 Climbing Los Angeles Center
Sun 03:30:02 PM 34.7436 -115.3742 90° East 495 570 45,000  Level Los Angeles Center
Sun 03:31:04 PM 34.7436 -115.1992 90° East 512 589 45,000  Level Los Angeles Center
Sun 03:32:06 PM 34.7419 -115.0247 91° East 516 594 45,000  Level Los Angeles Center
Sun 03:33:08 PM 34.7728 -114.8542 78° East 521 600 45,000  Level Los Angeles Center
Sun 03:34:10 PM 34.8161 -114.6861 73° East 520 598 45,000  Level Los Angeles Center
Sun 03:35:13 PM 34.8589 -114.5186 73° East 521 600 45,000  Level Los Angeles Center
Sun 03:36:14 PM 34.9111 -114.3183 72° East 520 598 45,000  Level Los Angeles Center
Sun 03:37:16 PM 34.9528 -114.1500 73° East 520 598 45,000  Level Los Angeles Center
Sun 03:38:54 PM 35.0197 -113.8858 73° East 521 600 45,000  Level Albuquerque Center
Sun 03:39:56 PM 35.0622 -113.7175 73° East 521 600 45,000  Level Albuquerque Center
Sun 03:40:58 PM 35.1042 -113.5481 73° East 521 600 45,000  Level Albuquerque Center
Sun 03:42:00 PM 35.1450 -113.3797 73° East 521 600 45,000  Level Albuquerque Center
Sun 03:43:02 PM 35.1925 -113.1797 74° East 519 597 45,000  Level Albuquerque Center
Sun 03:44:04 PM 35.2308 -113.0119 74° East 519 597 45,000  Level Albuquerque Center
Sun 03:45:06 PM 35.2717 -112.8531 72° East 526 605 45,000  Level Albuquerque Center
Sun 03:47:10 PM 35.3619 -112.4731 74° East 527 606 45,000  Level Albuquerque Center
Sun 03:48:40 PM 35.4172 -112.2347 74° East 525 604 45,000  Level Los Angeles Center
Sun 03:49:43 PM 35.4647 -112.0294 74° East 524 603 45,000  Level Los Angeles Center
Sun 03:50:45 PM 35.5056 -111.8581 74° East 524 603 45,000  Level Los Angeles Center
Sun 03:51:56 PM 35.5517 -111.6519 75° East 523 602 45,000  Level Albuquerque Center
Sun 03:52:58 PM 35.5908 -111.4786 74° East 524 603 45,000  Level Albuquerque Center
Sun 03:54:00 PM 35.6317 -111.2947 75° East 524 603 45,000  Level Albuquerque Center
Sun 03:55:02 PM 35.6686 -111.1300 75° East 524 603 45,000  Level Albuquerque Center
Sun 03:56:04 PM 35.7122 -110.9372 74° East 524 603 45,000  Level Albuquerque Center
Sun 03:57:06 PM 35.7486 -110.7714 75° East 524 603 45,000  Level Albuquerque Center
Sun 03:58:08 PM 35.7919 -110.5767 75° East 524 603 45,000  Level Albuquerque Center
Sun 03:59:10 PM 35.8264 -110.4094 76° East 524 603 45,000  Level Albuquerque Center
Sun 04:00:12 PM 35.8692 -110.2156 75° East 525 604 45,000  Level Albuquerque Center
Sun 04:01:19 PM 35.9097 -110.0228 75° East 523 602 45,000  Level Denver Center
Sun 04:02:17 PM 35.9450 -109.8553 75° East 525 604 45,000  Level Albuquerque Center
Sun 04:03:19 PM 35.9811 -109.6878 75° East 525 604 45,000  Level Albuquerque Center
Sun 04:04:21 PM 36.0206 -109.4939 76° East 524 603 45,000  Level Albuquerque Center
Sun 04:06:25 PM 36.0942 -109.1394 75° East 523 602 45,000  Level Albuquerque Center
Sun 04:07:32 PM 36.1319 -108.9689 75° East 520 598 45,000  Level Denver Center
Sun 04:08:00 PM 36.1278 -108.9120 75° East  Level FlightAware Approximate
Sun 04:08:34 PM 36.1764 -108.7589 75° East 550 633 45,000  Level Denver Center
Sun 04:10:33 PM 36.2397 -108.4258 77° East 521 600 45,000  Level Albuquerque Center
Sun 04:11:40 PM 36.2775 -108.2303 76° East 520 598 45,000  Level Denver Center
Sun 04:13:44 PM 36.3467 -107.8697 77° East 519 597 45,000  Level Denver Center
Sun 04:15:42 PM 36.4117 -107.5344 76° East 523 602 45,000  Level Albuquerque Center
Sun 04:16:50 PM 36.4481 -107.3392 77° East 523 602 45,000  Level Denver Center
Sun 04:17:52 PM 36.4858 -107.1436 76° East 522 601 45,000  Level Denver Center
Sun 04:18:55 PM 36.5153 -106.9756 78° East 522 601 45,000  Level Denver Center
Sun 04:19:57 PM 36.5517 -106.7792 77° East 522 601 45,000  Level Denver Center
Sun 04:20:59 PM 36.5836 -106.6114 77° East 522 601 45,000  Level Denver Center
Sun 04:22:01 PM 36.6131 -106.4464 77° East 522 601 45,000  Level Denver Center
Sun 04:23:03 PM 36.6447 -106.2728 77° East 518 596 45,000  Level Denver Center
Sun 04:24:05 PM 36.6814 -106.0606 78° East 520 598 45,000  Level Denver Center
Sun 04:25:07 PM 36.7128 -105.8861 77° East 520 598 45,000  Level Denver Center
Sun 04:26:09 PM 36.7403 -105.7208 78° East 518 596 45,000  Level Denver Center
Sun 04:27:11 PM 36.7764 -105.5128 78° East 515 593 45,000  Level Denver Center
Sun 04:28:13 PM 36.8072 -105.3403 77° East 512 589 45,000  Level Denver Center
Sun 04:29:32 PM 36.8394 -105.1289 79° East 515 593 45,000  Level Albuquerque Center
Sun 04:30:34 PM 36.8683 -104.9533 78° East 515 593 45,000  Level Albuquerque Center
Sun 04:31:20 PM 36.8908 -104.8136 79° East 518 596 45,000  Level Denver Center
Sun 04:32:22 PM 36.9197 -104.6408 78° East 512 589 45,000  Level Denver Center
Sun 04:33:24 PM 36.9533 -104.4342 78° East 510 587 45,000  Level Denver Center
Sun 04:34:26 PM 36.9811 -104.2594 79° East 510 587 45,000  Level Denver Center
Sun 04:35:28 PM 37.0083 -104.0817 79° East 520 598 45,000  Level Denver Center
Sun 04:36:30 PM 37.0353 -103.9086 79° East 514 592 45,000  Level Denver Center
Sun 04:37:32 PM 37.0628 -103.7347 79° East 514 592 45,000  Level Denver Center
Sun 04:38:34 PM 37.0950 -103.5264 79° East 514 592 45,000  Level Denver Center
Sun 04:39:36 PM 37.1217 -103.3503 79° East 514 592 45,000  Level Denver Center
Sun 04:40:38 PM 37.1478 -103.1739 79° East 515 593 45,000  Level Denver Center
Sun 04:41:40 PM 37.1739 -102.9989 79° East 516 594 45,000  Level Denver Center
Sun 04:42:31 PM 37.1972 -102.8444 79° East 515 593 45,000  Level Kansas City Center
Sun 04:43:33 PM 37.2267 -102.6469 79° East 515 593 45,000  Level Kansas City Center
Sun 04:45:01 PM 37.2617 -102.4000 80° East 516 594 45,000  Level Albuquerque Center
Sun 04:45:37 PM 37.2778 -102.2794 80° East 516 594 45,000  Level Kansas City Center
Sun 04:46:39 PM 37.3022 -102.1114 80° East 516 594 45,000  Level Kansas City Center
Sun 04:47:41 PM 37.3297 -101.9136 80° East 516 594 45,000  Level Kansas City Center
Sun 04:48:43 PM 37.3525 -101.7436 80° East 516 594 45,000  Level Kansas City Center
Sun 04:49:45 PM 37.3794 -101.5464 80° East 516 594 45,000  Level Kansas City Center
Sun 04:50:47 PM 37.4017 -101.3772 81° East 516 594 45,000  Level Kansas City Center
Sun 04:51:50 PM 37.4275 -101.1811 81° East 515 593 45,000  Level Kansas City Center
Sun 04:52:52 PM 37.4486 -101.0119 81° East 515 593 45,000  Level Kansas City Center
Sun 04:55:58 PM 37.5217 -100.4531 81° East 515 593 45,000  Level Kansas City Center
Sun 04:57:00 PM 37.5428 -100.2847 81° East 514 592 45,000  Level Kansas City Center
Sun 04:58:02 PM 37.5667 -100.0906 81° East 508 585 45,000  Level Kansas City Center
Sun 04:59:04 PM 37.5872 -99.9219 81° East 507 583 45,000  Level Kansas City Center
Sun 05:00:06 PM 37.6114 -99.7250 81° East 508 585 45,000  Level Kansas City Center
Sun 05:02:10 PM 37.6511 -99.3903 82° East 508 585 45,000  Level Kansas City Center
Sun 05:03:12 PM 37.6758 -99.1794 82° East 508 585 45,000  Level Kansas City Center
Sun 05:04:15 PM 37.6942 -99.0039 82° East 508 585 45,000  Level Kansas City Center
Sun 05:06:19 PM 37.7336 -98.6492 82° East 509 586 45,000  Level Kansas City Center
Sun 05:07:21 PM 37.7525 -98.4722 82° East 509 586 45,000  Level Kansas City Center
Sun 05:08:23 PM 37.7750 -98.2572 82° East 514 592 45,000 -24 Level Kansas City Center
Sun 05:11:29 PM 37.8286 -97.6994 82° East 523 602 44,900  Descending Kansas City Center
Sun 05:12:31 PM 37.8486 -97.5225 82° East 516 594 45,000 48 Climbing Kansas City Center
Sun 05:13:33 PM 37.8675 -97.3369 83° East 510 587 45,000  Level Kansas City Center
Sun 05:14:36 PM 37.8847 -97.1600 83° East 509 586 45,000  Level Kansas City Center
Sun 05:17:42 PM 37.9378 -96.5922 84° East 510 587 45,000  Level Kansas City Center
Sun 05:18:44 PM 37.9542 -96.4164 83° East 507 583 45,000  Level Kansas City Center
Sun 05:19:46 PM 37.9703 -96.2419 83° East 504 580 45,000  Level Kansas City Center
Sun 05:20:48 PM 37.9856 -96.0519 84° East 504 580 45,000  Level Kansas City Center
Sun 05:21:50 PM 38.0008 -95.8783 84° East 502 578 45,000  Level Kansas City Center
Sun 05:22:52 PM 38.0161 -95.7019 84° East 503 579 45,000  Level Kansas City Center
Sun 05:23:00 PM 38.0133 -95.7484 84° East  Level FlightAware Approximate
Sun 05:23:54 PM 38.0303 -95.5283 84° East 501 577 45,000  Level Kansas City Center
Sun 05:25:59 PM 38.0614 -95.1475 85° East 498 573 45,000  Level Kansas City Center
Sun 05:27:01 PM 38.0747 -94.9714 84° East 500 575 45,000  Level Kansas City Center
Sun 05:28:03 PM 38.0894 -94.7978 84° East 500 575 45,000  Level Kansas City Center
Sun 05:29:05 PM 38.0994 -94.6283 86° East 490 564 45,000  Level Kansas City Center
Sun 05:30:07 PM 38.1136 -94.4531 84° East 496 571 45,000  Level Kansas City Center
Sun 05:31:09 PM 38.1272 -94.2433 85° East 500 575 45,000  Level Kansas City Center
Sun 05:32:11 PM 38.1389 -94.0839 85° East 499 574 45,000  Level Kansas City Center
Sun 05:33:13 PM 38.1506 -93.9086 85° East 499 574 45,000  Level Kansas City Center
Sun 05:35:17 PM 38.1756 -93.5269 85° East 496 571 45,000  Level Kansas City Center
Sun 05:37:00 PM 38.1928 -93.2364 86° East  Level FlightAware Approximate
Sun 05:37:22 PM 38.1994 -93.1778 86° East 495 570 45,000  Level Kansas City Center
Sun 05:39:26 PM 38.2217 -92.8264 85° East 495 570 45,000  Level Kansas City Center
Sun 05:40:28 PM 38.2333 -92.6456 85° East 502 578 45,000  Level Kansas City Center
Sun 05:41:30 PM 38.2458 -92.4325 86° East 501 577 45,000  Level Kansas City Center
Sun 05:42:32 PM 38.2564 -92.2517 86° East 501 577 45,000  Level Kansas City Center
Sun 05:43:34 PM 38.2642 -92.0731 87° East 501 577 45,000  Level Kansas City Center
Sun 05:44:36 PM 38.2733 -91.8944 86° East 501 577 45,000  Level Kansas City Center
Sun 05:45:38 PM 38.2814 -91.7178 87° East 501 577 45,000  Level Kansas City Center
Sun 05:46:40 PM 38.2897 -91.5436 86° East 498 573 45,000  Level Kansas City Center
Sun 05:47:43 PM 38.3019 -91.3719 85° East 494 568 45,000  Level Kansas City Center
Sun 05:49:47 PM 38.3133 -90.9828 88° East 499 574 45,000  Level Kansas City Center
Sun 05:52:53 PM 38.3342 -90.4586 87° East 499 574 45,000  Level Kansas City Center
Sun 05:53:55 PM 38.3406 -90.2853 87° East 499 574 45,000  Level Kansas City Center
Sun 05:54:57 PM 38.3486 -90.0761 87° East 499 574 45,000  Level Kansas City Center
Sun 05:57:02 PM 38.3622 -89.7208 83° East 506 582 45,000  Level Kansas City Center
Sun 05:58:00 PM 38.3566 -89.5862 87° East  Level FlightAware Approximate
Sun 05:58:04 PM 38.3667 -89.5453 88° East 502 578 45,000  Level Kansas City Center
Sun 05:59:42 PM 38.3772 -89.2372 87° East 501 577 45,000  Level Indianapolis Center
Sun 06:00:44 PM 38.3819 -89.0597 88° East 501 577 45,000  Level Indianapolis Center
Sun 06:01:46 PM 38.3867 -88.8817 88° East 501 577 45,000  Level Indianapolis Center
Sun 06:02:48 PM 38.3908 -88.7022 88° East 502 578 45,000  Level Indianapolis Center
Sun 06:03:51 PM 38.3956 -88.5214 88° East 504 580 45,000  Level Indianapolis Center
Sun 06:04:53 PM 38.3994 -88.3075 89° East 505 581 45,000  Level Indianapolis Center
Sun 06:05:55 PM 38.4031 -88.1292 88° East 505 581 45,000  Level Indianapolis Center
Sun 06:06:57 PM 38.4064 -87.9494 89° East 505 581 45,000  Level Indianapolis Center
Sun 06:07:59 PM 38.4100 -87.7672 88° East 507 583 45,000  Level Indianapolis Center
Sun 06:09:01 PM 38.4122 -87.5875 89° East 508 585 45,000  Level Indianapolis Center
Sun 06:10:03 PM 38.4156 -87.4089 89° East 504 580 45,000  Level Indianapolis Center
Sun 06:11:06 PM 38.4186 -87.2281 89° East 504 580 45,000  Level Indianapolis Center
Sun 06:12:08 PM 38.4181 -87.0406 90° East 504 580 45,000  Level Indianapolis Center
Sun 06:13:10 PM 38.4206 -86.8514 89° East 510 587 45,000  Level Indianapolis Center
Sun 06:14:12 PM 38.4214 -86.6333 90° East 512 589 45,000  Level Indianapolis Center
Sun 06:15:14 PM 38.4217 -86.4547 90° East 507 583 45,000  Level Indianapolis Center
Sun 06:16:16 PM 38.4233 -86.2750 89° East 506 582 45,000  Level Indianapolis Center
Sun 06:17:18 PM 38.4228 -86.0983 90° East 503 579 45,000  Level Indianapolis Center
Sun 06:18:21 PM 38.4225 -85.9186 90° East 502 578 45,000  Level Indianapolis Center
Sun 06:19:23 PM 38.4239 -85.7378 89° East 505 581 45,000  Level Indianapolis Center
Sun 06:20:25 PM 38.4228 -85.5583 90° East 505 581 45,000  Level Indianapolis Center
Sun 06:21:27 PM 38.4211 -85.3425 90° East 505 581 45,000  Level Indianapolis Center
Sun 06:22:29 PM 38.4211 -85.1800 90° East 505 581 45,000  Level Indianapolis Center
Sun 06:23:32 PM 38.4197 -85.0003 91° East 505 581 45,000  Level Indianapolis Center
Sun 06:24:33 PM 38.4178 -84.7906 91° East 505 581 45,000  Level Indianapolis Center
Sun 06:26:38 PM 38.4136 -84.4378 82° East 499 574 45,000  Level Indianapolis Center
Sun 06:27:40 PM 38.4117 -84.2611 91° East 498 573 45,000  Level Indianapolis Center
Sun 06:28:42 PM 38.4086 -84.0881 91° East 495 570 45,000  Level Indianapolis Center
Sun 06:29:44 PM 38.4044 -83.8850 91° East 494 568 45,000  Level Indianapolis Center
Sun 06:30:46 PM 38.4028 -83.7094 91° East 494 568 45,000  Level Indianapolis Center
Sun 06:32:50 PM 38.3953 -83.3614 92° East 493 567 45,000  Level Indianapolis Center
Sun 06:33:53 PM 38.3922 -83.1869 91° East 493 567 45,000  Level Indianapolis Center
Sun 06:34:55 PM 38.3867 -83.0144 92° East 491 565 45,000  Level Indianapolis Center
Sun 06:35:57 PM 38.3825 -82.8097 91° East 491 565 45,000  Level Indianapolis Center
Sun 06:36:59 PM 38.3781 -82.6350 92° East 491 565 45,000  Level Indianapolis Center
Sun 06:38:45 PM 38.3692 -82.3408 93° East 495 570 45,000  Level Washington Center
Sun 06:39:46 PM 38.3644 -82.1653 92° East 495 570 45,000 -48 Level Washington Center
Sun 06:40:50 PM 38.3586 -81.9878 92° East 496 571 44,900 -1,065 Descending Washington Center
Sun 06:41:50 PM 38.3506 -81.7769 93° East 497 572 42,800 -2,244 Descending Washington Center
Sun 06:42:53 PM 38.3456 -81.5950 92° East 512 589 40,300 -2,419 Descending Washington Center
Sun 06:43:54 PM 38.3386 -81.4128 93° East 515 593 37,800 -1,385 Descending Washington Center
Sun 06:45:16 PM 38.3289 -81.1706 93° East 516 594 37,000 -333 Descending Indianapolis Center
Sun 06:46:18 PM 38.3231 -80.9911 92° East 511 588 37,000  Level Indianapolis Center
Sun 06:47:20 PM 38.3161 -80.7722 92° East 516 594 37,000  Level Indianapolis Center
Sun 06:48:23 PM 38.3094 -80.5911 93° East 515 593 37,000 -667 Level Indianapolis Center
Sun 06:49:08 PM 38.3061 -80.4669 92° East 515 593 35,800 -2,343 Descending Washington Center
Sun 06:50:08 PM 38.3128 -80.2878 87° East 508 585 32,900 -3,276 Descending Washington Center
Sun 06:52:13 PM 38.3267 -79.9186 87° East 522 601 25,700 -2,000 Descending Washington Center
Sun 06:54:35 PM 38.4039 -79.5383 75° East 460 529 24,000 -548 Descending Indianapolis Center
Sun 06:55:19 PM 38.4389 -79.4175 70° East 466 536 24,000 -1,345 Level Washington Center
Sun 06:58:27 PM 38.5664 -78.9653 73° East 443 510 18,800 -1,711 Descending Washington Center
Sun 06:59:28 PM 38.6072 -78.8242 70° East 430 495 16,900 -1,776 Descending Washington Center
Sun 07:00:32 PM 38.6469 -78.6814 70° East 360 414 15,100 -1,536 Descending Washington Center
Sun 07:01:33 PM 38.6756 -78.5767 71° East 319 367 13,700 -1,388 Descending Washington Center
Sun 07:02:33 PM 38.7033 -78.4769 70° East 302 348 12,300 -1,258 Descending Washington Center
Sun 07:03:37 PM 38.7317 -78.3792 70° East 297 342 11,100 -1,228 Descending Washington Center
Sun 07:04:40 PM 38.7294 -78.2842 92° East 297 342 9,700 -1,403 Descending Washington Center
Sun 07:05:41 PM 38.6878 -78.1981 122° Southeast 289 333 8,200 -1,623 Descending Washington Center
Sun 07:06:42 PM 38.6242 -78.1100 133° Southeast 284 327 6,400 -1,536 Descending Washington Center
Sun 07:07:46 PM 38.5722 -78.0369 132° Southeast 284 327 5,000 -497 Descending Washington Center
Sun 07:09:31 PM 38.6167 -77.8833 21° North 260 299 5,000  Level Potomac TRACON
Sun 07:10:31 PM 38.6500 -77.8000 63° Northeast 262 302 5,000 -298 Level Potomac TRACON
Sun 07:11:32 PM 38.7000 -77.7167 52° Northeast 257 296 4,400 -496 Descending Potomac TRACON
Sun 07:12:32 PM 38.7333 -77.6333 63° Northeast 261 300 4,000 -350 Descending Potomac TRACON
Sun 07:13:32 PM 38.7667 -77.5667 57° Northeast 221 254 3,700 -496 Descending Potomac TRACON
Sun 07:14:33 PM 38.8000 -77.5000 57° Northeast 211 243 3,000 -595 Descending Potomac TRACON
Sun 07:15:33 PM 38.8500 -77.4833 15° North 190 219 2,500 -843 Descending Potomac TRACON
Sun 07:16:34 PM 38.8833 -77.4667 21° North 160 184 1,300 8,323 Descending Potomac TRACON
Sun 07:18:08 PM 38.9436 -77.4575 North 146 168 24,000 14,489 Climbing Washington Center
Sun 07:20:00 PM 38.9474 -77.4599 334° Northwest  Level Estimated

Login

Don't have an account? Register now (free) for customized features, flight alerts, and more!